sensor_id;sensor_type;location;lat;lon;timestamp;temperature;humidity
9975;DHT22;5028;50.974;4.968;2022-07-29T00:00:54;18.20;99.90
9975;DHT22;5028;50.974;4.968;2022-07-29T00:03:29;18.20;99.90
9975;DHT22;5028;50.974;4.968;2022-07-29T00:05:59;18.20;99.90
9975;DHT22;5028;50.974;4.968;2022-07-29T00:08:35;18.20;99.90
9975;DHT22;5028;50.974;4.968;2022-07-29T00:11:04;18.20;99.90
9975;DHT22;5028;50.974;4.968;2022-07-29T00:13:39;18.10;99.90
9975;DHT22;5028;50.974;4.968;2022-07-29T00:16:13;18.10;99.90
9975;DHT22;5028;50.974;4.968;2022-07-29T00:18:55;18.10;99.90
9975;DHT22;5028;50.974;4.968;2022-07-29T00:21:29;18.00;99.90
9975;DHT22;5028;50.974;4.968;2022-07-29T00:24:06;18.00;99.90
9975;DHT22;5028;50.974;4.968;2022-07-29T00:26:34;17.90;99.90
9975;DHT22;5028;50.974;4.968;2022-07-29T00:29:09;17.90;99.90
9975;DHT22;5028;50.974;4.968;2022-07-29T00:31:57;17.80;99.90
9975;DHT22;5028;50.974;4.968;2022-07-29T00:34:32;17.70;99.90
9975;DHT22;5028;50.974;4.968;2022-07-29T00:37:26;17.70;99.90
9975;DHT22;5028;50.974;4.968;2022-07-29T00:39:54;17.60;99.90
9975;DHT22;5028;50.974;4.968;2022-07-29T00:42:29;17.50;99.90
9975;DHT22;5028;50.974;4.968;2022-07-29T00:44:57;17.50;99.90
9975;DHT22;5028;50.974;4.968;2022-07-29T00:47:32;17.50;99.90
9975;DHT22;5028;50.974;4.968;2022-07-29T00:50:01;17.50;99.90
9975;DHT22;5028;50.974;4.968;2022-07-29T00:52:39;17.50;99.90
9975;DHT22;5028;50.974;4.968;2022-07-29T00:55:10;17.40;99.90
9975;DHT22;5028;50.974;4.968;2022-07-29T00:57:45;17.40;99.90
9975;DHT22;5028;50.974;4.968;2022-07-29T01:00:16;17.40;99.90
9975;DHT22;5028;50.974;4.968;2022-07-29T01:02:51;17.30;99.90
9975;DHT22;5028;50.974;4.968;2022-07-29T01:05:21;17.30;99.90
9975;DHT22;5028;50.974;4.968;2022-07-29T01:08:18;17.30;99.90
9975;DHT22;5028;50.974;4.968;2022-07-29T01:10:49;17.20;99.90
9975;DHT22;5028;50.974;4.968;2022-07-29T01:13:25;17.20;99.90
9975;DHT22;5028;50.974;4.968;2022-07-29T01:15:58;17.30;99.90
9975;DHT22;5028;50.974;4.968;2022-07-29T01:18:34;17.20;99.90
9975;DHT22;5028;50.974;4.968;2022-07-29T01:21:33;17.20;99.90
9975;DHT22;5028;50.974;4.968;2022-07-29T01:24:27;17.30;99.90
9975;DHT22;5028;50.974;4.968;2022-07-29T01:27:01;17.20;99.90
9975;DHT22;5028;50.974;4.968;2022-07-29T01:29:48;17.20;99.90
9975;DHT22;5028;50.974;4.968;2022-07-29T01:32:20;17.20;99.90
9975;DHT22;5028;50.974;4.968;2022-07-29T01:35:02;17.20;99.90
9975;DHT22;5028;50.974;4.968;2022-07-29T01:37:39;17.20;99.90
9975;DHT22;5028;50.974;4.968;2022-07-29T01:40:20;17.10;99.90
9975;DHT22;5028;50.974;4.968;2022-07-29T01:42:52;17.00;99.90
9975;DHT22;5028;50.974;4.968;2022-07-29T01:45:37;17.00;99.90
9975;DHT22;5028;50.974;4.968;2022-07-29T01:48:11;17.00;99.90
9975;DHT22;5028;50.974;4.968;2022-07-29T01:50:50;17.00;99.90
9975;DHT22;5028;50.974;4.968;2022-07-29T01:53:27;17.00;99.90
9975;DHT22;5028;50.974;4.968;2022-07-29T01:56:04;17.00;99.90
9975;DHT22;5028;50.974;4.968;2022-07-29T01:58:35;17.10;99.90
9975;DHT22;5028;50.974;4.968;2022-07-29T02:01:14;17.10;99.90
9975;DHT22;5028;50.974;4.968;2022-07-29T02:03:45;17.10;99.90
9975;DHT22;5028;50.974;4.968;2022-07-29T02:06:22;17.10;99.90
9975;DHT22;5028;50.974;4.968;2022-07-29T02:08:52;17.10;99.90
9975;DHT22;5028;50.974;4.968;2022-07-29T02:11:27;17.10;99.90
9975;DHT22;5028;50.974;4.968;2022-07-29T02:13:59;17.10;99.90
9975;DHT22;5028;50.974;4.968;2022-07-29T02:16:37;17.10;99.90
9975;DHT22;5028;50.974;4.968;2022-07-29T02:19:07;17.10;99.90
9975;DHT22;5028;50.974;4.968;2022-07-29T02:21:51;17.10;99.90
9975;DHT22;5028;50.974;4.968;2022-07-29T02:24:22;17.10;99.90
9975;DHT22;5028;50.974;4.968;2022-07-29T02:26:59;17.00;99.90
9975;DHT22;5028;50.974;4.968;2022-07-29T02:29:30;17.00;99.90
9975;DHT22;5028;50.974;4.968;2022-07-29T02:32:08;16.90;99.90
9975;DHT22;5028;50.974;4.968;2022-07-29T02:34:40;16.90;99.90
9975;DHT22;5028;50.974;4.968;2022-07-29T02:37:17;16.90;99.90
9975;DHT22;5028;50.974;4.968;2022-07-29T02:39:47;16.90;99.90
9975;DHT22;5028;50.974;4.968;2022-07-29T02:42:24;16.80;99.90
9975;DHT22;5028;50.974;4.968;2022-07-29T02:44:54;16.80;99.90
9975;DHT22;5028;50.974;4.968;2022-07-29T02:47:36;16.80;99.90
9975;DHT22;5028;50.974;4.968;2022-07-29T02:50:12;16.80;99.90
9975;DHT22;5028;50.974;4.968;2022-07-29T02:52:53;16.80;99.90
9975;DHT22;5028;50.974;4.968;2022-07-29T02:55:26;16.80;99.90
9975;DHT22;5028;50.974;4.968;2022-07-29T02:58:05;16.80;99.90
9975;DHT22;5028;50.974;4.968;2022-07-29T03:00:37;16.80;99.90
9975;DHT22;5028;50.974;4.968;2022-07-29T03:03:16;16.70;99.90
9975;DHT22;5028;50.974;4.968;2022-07-29T03:05:46;16.70;99.90
9975;DHT22;5028;50.974;4.968;2022-07-29T03:08:22;16.60;99.90
9975;DHT22;5028;50.974;4.968;2022-07-29T03:10:51;16.70;99.90
9975;DHT22;5028;50.974;4.968;2022-07-29T03:13:27;16.60;99.90
9975;DHT22;5028;50.974;4.968;2022-07-29T03:15:57;16.50;99.90
9975;DHT22;5028;50.974;4.968;2022-07-29T03:18:44;16.50;99.90
9975;DHT22;5028;50.974;4.968;2022-07-29T03:21:26;16.40;99.90
9975;DHT22;5028;50.974;4.968;2022-07-29T03:24:01;16.30;99.90
9975;DHT22;5028;50.974;4.968;2022-07-29T03:26:38;16.30;99.90
9975;DHT22;5028;50.974;4.968;2022-07-29T03:29:13;16.20;99.90
9975;DHT22;5028;50.974;4.968;2022-07-29T03:31:45;16.20;99.90
9975;DHT22;5028;50.974;4.968;2022-07-29T03:34:22;16.10;99.90
9975;DHT22;5028;50.974;4.968;2022-07-29T03:36:50;16.10;99.90
9975;DHT22;5028;50.974;4.968;2022-07-29T03:39:29;16.10;99.90
9975;DHT22;5028;50.974;4.968;2022-07-29T03:42:00;16.00;99.90
9975;DHT22;5028;50.974;4.968;2022-07-29T03:44:36;16.00;99.90
9975;DHT22;5028;50.974;4.968;2022-07-29T03:47:06;15.90;99.90
9975;DHT22;5028;50.974;4.968;2022-07-29T03:49:46;15.90;99.90
9975;DHT22;5028;50.974;4.968;2022-07-29T03:52:16;15.80;99.90
9975;DHT22;5028;50.974;4.968;2022-07-29T03:54:52;15.70;99.90
9975;DHT22;5028;50.974;4.968;2022-07-29T03:57:24;15.60;99.90
9975;DHT22;5028;50.974;4.968;2022-07-29T04:00:01;15.60;99.90
9975;DHT22;5028;50.974;4.968;2022-07-29T04:02:31;15.60;99.90
9975;DHT22;5028;50.974;4.968;2022-07-29T04:05:13;15.60;99.90
9975;DHT22;5028;50.974;4.968;2022-07-29T04:07:43;15.50;99.90
9975;DHT22;5028;50.974;4.968;2022-07-29T04:10:18;15.50;99.90
9975;DHT22;5028;50.974;4.968;2022-07-29T04:12:57;15.60;99.90
9975;DHT22;5028;50.974;4.968;2022-07-29T04:15:32;15.60;99.90
9975;DHT22;5028;50.974;4.968;2022-07-29T04:18:01;15.70;99.90
9975;DHT22;5028;50.974;4.968;2022-07-29T04:20:44;15.70;99.90
9975;DHT22;5028;50.974;4.968;2022-07-29T04:23:13;15.70;99.90
9975;DHT22;5028;50.974;4.968;2022-07-29T04:25:48;15.60;99.90
9975;DHT22;5028;50.974;4.968;2022-07-29T04:28:16;15.70;99.90
9975;DHT22;5028;50.974;4.968;2022-07-29T04:30:52;15.60;99.90
9975;DHT22;5028;50.974;4.968;2022-07-29T04:33:21;15.50;99.90
9975;DHT22;5028;50.974;4.968;2022-07-29T04:35:58;15.50;99.90
9975;DHT22;5028;50.974;4.968;2022-07-29T04:38:27;15.50;99.90
9975;DHT22;5028;50.974;4.968;2022-07-29T04:41:01;15.50;99.90
9975;DHT22;5028;50.974;4.968;2022-07-29T04:43:32;15.50;99.90
9975;DHT22;5028;50.974;4.968;2022-07-29T04:46:07;15.50;99.90
9975;DHT22;5028;50.974;4.968;2022-07-29T04:48:36;15.40;99.90
9975;DHT22;5028;50.974;4.968;2022-07-29T04:51:12;15.40;99.90
9975;DHT22;5028;50.974;4.968;2022-07-29T04:53:40;15.30;99.90
9975;DHT22;5028;50.974;4.968;2022-07-29T04:56:15;15.30;99.90
9975;DHT22;5028;50.974;4.968;2022-07-29T04:58:44;15.20;99.90
9975;DHT22;5028;50.974;4.968;2022-07-29T05:01:19;15.30;99.90
9975;DHT22;5028;50.974;4.968;2022-07-29T05:03:48;15.30;99.90
9975;DHT22;5028;50.974;4.968;2022-07-29T05:06:28;15.30;99.90
9975;DHT22;5028;50.974;4.968;2022-07-29T05:08:56;15.30;99.90
9975;DHT22;5028;50.974;4.968;2022-07-29T05:11:31;15.30;99.90
9975;DHT22;5028;50.974;4.968;2022-07-29T05:14:00;15.30;99.90
9975;DHT22;5028;50.974;4.968;2022-07-29T05:16:35;15.40;99.90
9975;DHT22;5028;50.974;4.968;2022-07-29T05:19:03;15.50;99.90
9975;DHT22;5028;50.974;4.968;2022-07-29T05:21:42;15.50;99.90
9975;DHT22;5028;50.974;4.968;2022-07-29T05:24:19;15.60;99.90
9975;DHT22;5028;50.974;4.968;2022-07-29T05:26:55;15.70;99.90
9975;DHT22;5028;50.974;4.968;2022-07-29T05:29:23;15.80;99.90
9975;DHT22;5028;50.974;4.968;2022-07-29T05:32:11;15.90;99.90
9975;DHT22;5028;50.974;4.968;2022-07-29T05:34:40;15.90;99.90
9975;DHT22;5028;50.974;4.968;2022-07-29T05:37:19;16.00;99.90
9975;DHT22;5028;50.974;4.968;2022-07-29T05:39:50;16.10;99.90
9975;DHT22;5028;50.974;4.968;2022-07-29T05:42:26;16.10;99.90
9975;DHT22;5028;50.974;4.968;2022-07-29T05:44:56;16.20;99.90
9975;DHT22;5028;50.974;4.968;2022-07-29T05:47:30;16.30;99.90
9975;DHT22;5028;50.974;4.968;2022-07-29T05:49:59;16.30;99.90
9975;DHT22;5028;50.974;4.968;2022-07-29T05:52:36;16.40;99.90
9975;DHT22;5028;50.974;4.968;2022-07-29T05:55:05;16.50;99.90
9975;DHT22;5028;50.974;4.968;2022-07-29T05:57:40;16.70;99.90
9975;DHT22;5028;50.974;4.968;2022-07-29T06:00:11;16.80;99.90
9975;DHT22;5028;50.974;4.968;2022-07-29T06:02:47;16.90;99.90
9975;DHT22;5028;50.974;4.968;2022-07-29T06:05:15;17.00;99.90
9975;DHT22;5028;50.974;4.968;2022-07-29T06:07:52;17.10;99.90
9975;DHT22;5028;50.974;4.968;2022-07-29T06:10:21;17.10;99.90
9975;DHT22;5028;50.974;4.968;2022-07-29T06:12:56;17.10;99.90
9975;DHT22;5028;50.974;4.968;2022-07-29T06:15:24;17.20;99.90
9975;DHT22;5028;50.974;4.968;2022-07-29T06:17:59;17.30;99.90
9975;DHT22;5028;50.974;4.968;2022-07-29T06:20:35;17.40;99.90
9975;DHT22;5028;50.974;4.968;2022-07-29T06:23:12;17.40;99.90
9975;DHT22;5028;50.974;4.968;2022-07-29T06:25:41;17.40;99.90
9975;DHT22;5028;50.974;4.968;2022-07-29T06:28:15;17.50;99.90
9975;DHT22;5028;50.974;4.968;2022-07-29T06:30:44;17.50;99.90
9975;DHT22;5028;50.974;4.968;2022-07-29T06:33:18;17.60;99.90
9975;DHT22;5028;50.974;4.968;2022-07-29T06:35:47;17.70;99.90
9975;DHT22;5028;50.974;4.968;2022-07-29T06:38:24;17.60;99.90
9975;DHT22;5028;50.974;4.968;2022-07-29T06:41:00;17.60;99.90
9975;DHT22;5028;50.974;4.968;2022-07-29T06:43:37;17.60;99.90
9975;DHT22;5028;50.974;4.968;2022-07-29T06:46:17;17.60;99.90
9975;DHT22;5028;50.974;4.968;2022-07-29T06:48:52;17.60;99.90
9975;DHT22;5028;50.974;4.968;2022-07-29T06:51:21;17.60;99.90
9975;DHT22;5028;50.974;4.968;2022-07-29T06:53:58;17.70;99.90
9975;DHT22;5028;50.974;4.968;2022-07-29T06:56:29;17.60;99.90
9975;DHT22;5028;50.974;4.968;2022-07-29T06:59:07;17.70;99.90
9975;DHT22;5028;50.974;4.968;2022-07-29T07:01:37;17.80;99.90
9975;DHT22;5028;50.974;4.968;2022-07-29T07:04:12;17.90;99.90
9975;DHT22;5028;50.974;4.968;2022-07-29T07:06:42;17.90;99.90
9975;DHT22;5028;50.974;4.968;2022-07-29T07:09:19;18.00;99.90
9975;DHT22;5028;50.974;4.968;2022-07-29T07:11:47;18.00;99.90
9975;DHT22;5028;50.974;4.968;2022-07-29T07:14:23;18.00;99.90
9975;DHT22;5028;50.974;4.968;2022-07-29T07:16:53;18.10;99.90
9975;DHT22;5028;50.974;4.968;2022-07-29T07:19:29;18.20;99.90
9975;DHT22;5028;50.974;4.968;2022-07-29T07:22:04;18.30;99.90
9975;DHT22;5028;50.974;4.968;2022-07-29T07:24:41;18.30;99.90
9975;DHT22;5028;50.974;4.968;2022-07-29T07:27:09;18.30;99.90
9975;DHT22;5028;50.974;4.968;2022-07-29T07:29:44;18.40;99.90
9975;DHT22;5028;50.974;4.968;2022-07-29T07:32:19;18.50;99.90
9975;DHT22;5028;50.974;4.968;2022-07-29T07:34:48;18.50;99.90
9975;DHT22;5028;50.974;4.968;2022-07-29T07:37:24;18.60;99.90
9975;DHT22;5028;50.974;4.968;2022-07-29T07:39:54;18.60;99.90
9975;DHT22;5028;50.974;4.968;2022-07-29T07:42:29;18.70;99.90
9975;DHT22;5028;50.974;4.968;2022-07-29T07:44:58;18.90;99.90
9975;DHT22;5028;50.974;4.968;2022-07-29T07:47:42;18.90;99.90
9975;DHT22;5028;50.974;4.968;2022-07-29T07:50:13;19.00;99.90
9975;DHT22;5028;50.974;4.968;2022-07-29T07:52:51;19.20;99.90
9975;DHT22;5028;50.974;4.968;2022-07-29T07:55:21;19.20;99.90
9975;DHT22;5028;50.974;4.968;2022-07-29T07:58:17;19.30;99.90
9975;DHT22;5028;50.974;4.968;2022-07-29T08:00:45;19.40;99.90
9975;DHT22;5028;50.974;4.968;2022-07-29T08:03:20;19.50;99.90
9975;DHT22;5028;50.974;4.968;2022-07-29T08:05:49;19.60;99.90
9975;DHT22;5028;50.974;4.968;2022-07-29T08:08:25;19.70;99.90
9975;DHT22;5028;50.974;4.968;2022-07-29T08:10:54;19.80;99.90
9975;DHT22;5028;50.974;4.968;2022-07-29T08:13:36;19.90;99.90
9975;DHT22;5028;50.974;4.968;2022-07-29T08:16:06;20.20;99.90
9975;DHT22;5028;50.974;4.968;2022-07-29T08:19:01;20.20;99.90
9975;DHT22;5028;50.974;4.968;2022-07-29T08:21:43;20.50;99.90
9975;DHT22;5028;50.974;4.968;2022-07-29T08:24:18;20.80;99.90
9975;DHT22;5028;50.974;4.968;2022-07-29T08:27:06;21.00;99.90
9975;DHT22;5028;50.974;4.968;2022-07-29T08:30:01;21.10;99.90
9975;DHT22;5028;50.974;4.968;2022-07-29T08:32:29;21.30;99.90
9975;DHT22;5028;50.974;4.968;2022-07-29T08:35:22;21.20;99.90
9975;DHT22;5028;50.974;4.968;2022-07-29T08:37:51;21.40;99.90
9975;DHT22;5028;50.974;4.968;2022-07-29T08:40:28;21.60;99.90
9975;DHT22;5028;50.974;4.968;2022-07-29T08:43:04;21.70;99.90
9975;DHT22;5028;50.974;4.968;2022-07-29T08:45:42;21.80;99.90
9975;DHT22;5028;50.974;4.968;2022-07-29T08:48:15;22.10;99.90
9975;DHT22;5028;50.974;4.968;2022-07-29T08:50:56;22.10;99.90
9975;DHT22;5028;50.974;4.968;2022-07-29T08:53:26;22.10;99.90
9975;DHT22;5028;50.974;4.968;2022-07-29T08:56:03;22.20;99.90
9975;DHT22;5028;50.974;4.968;2022-07-29T08:58:33;22.30;99.90
9975;DHT22;5028;50.974;4.968;2022-07-29T09:01:16;22.40;99.90
9975;DHT22;5028;50.974;4.968;2022-07-29T09:03:46;22.90;99.90
9975;DHT22;5028;50.974;4.968;2022-07-29T09:06:22;23.20;99.90
9975;DHT22;5028;50.974;4.968;2022-07-29T09:08:58;23.20;99.90
9975;DHT22;5028;50.974;4.968;2022-07-29T09:11:34;22.80;99.90
9975;DHT22;5028;50.974;4.968;2022-07-29T09:14:04;22.70;99.90
9975;DHT22;5028;50.974;4.968;2022-07-29T09:16:45;22.60;99.90
9975;DHT22;5028;50.974;4.968;2022-07-29T09:19:27;22.60;99.90
9975;DHT22;5028;50.974;4.968;2022-07-29T09:22:09;22.90;99.90
9975;DHT22;5028;50.974;4.968;2022-07-29T09:24:47;23.30;99.90
9975;DHT22;5028;50.974;4.968;2022-07-29T09:27:20;23.60;99.90
9975;DHT22;5028;50.974;4.968;2022-07-29T09:29:58;23.80;99.90
9975;DHT22;5028;50.974;4.968;2022-07-29T09:32:27;23.80;99.90
9975;DHT22;5028;50.974;4.968;2022-07-29T09:35:19;23.50;99.90
9975;DHT22;5028;50.974;4.968;2022-07-29T09:37:48;23.20;99.90
9975;DHT22;5028;50.974;4.968;2022-07-29T09:40:25;23.30;99.90
9975;DHT22;5028;50.974;4.968;2022-07-29T09:42:54;23.80;99.90
9975;DHT22;5028;50.974;4.968;2022-07-29T09:45:33;23.90;99.90
9975;DHT22;5028;50.974;4.968;2022-07-29T09:48:14;24.10;99.90
9975;DHT22;5028;50.974;4.968;2022-07-29T09:50:51;24.50;99.90
9975;DHT22;5028;50.974;4.968;2022-07-29T09:53:31;24.60;99.90
9975;DHT22;5028;50.974;4.968;2022-07-29T09:56:07;24.30;99.90
9975;DHT22;5028;50.974;4.968;2022-07-29T09:58:37;24.40;99.90
9975;DHT22;5028;50.974;4.968;2022-07-29T10:01:14;24.70;99.90
9975;DHT22;5028;50.974;4.968;2022-07-29T10:03:52;24.80;99.90
9975;DHT22;5028;50.974;4.968;2022-07-29T10:06:28;24.60;99.90
9975;DHT22;5028;50.974;4.968;2022-07-29T10:09:07;24.60;99.90
9975;DHT22;5028;50.974;4.968;2022-07-29T10:12:02;24.60;99.90
9975;DHT22;5028;50.974;4.968;2022-07-29T10:14:31;24.50;99.90
9975;DHT22;5028;50.974;4.968;2022-07-29T10:17:09;24.60;99.90
9975;DHT22;5028;50.974;4.968;2022-07-29T10:19:39;24.50;99.90
9975;DHT22;5028;50.974;4.968;2022-07-29T10:22:20;24.60;99.90
9975;DHT22;5028;50.974;4.968;2022-07-29T10:25:10;24.70;99.90
9975;DHT22;5028;50.974;4.968;2022-07-29T10:27:47;25.10;99.90
9975;DHT22;5028;50.974;4.968;2022-07-29T10:30:19;25.40;99.90
9975;DHT22;5028;50.974;4.968;2022-07-29T10:33:15;25.30;99.90
9975;DHT22;5028;50.974;4.968;2022-07-29T10:36:07;25.60;99.90
9975;DHT22;5028;50.974;4.968;2022-07-29T10:38:55;25.70;99.90
9975;DHT22;5028;50.974;4.968;2022-07-29T10:41:52;26.20;99.90
9975;DHT22;5028;50.974;4.968;2022-07-29T10:44:31;26.20;99.90
9975;DHT22;5028;50.974;4.968;2022-07-29T10:47:00;26.40;99.90
9975;DHT22;5028;50.974;4.968;2022-07-29T10:49:37;26.20;99.90
9975;DHT22;5028;50.974;4.968;2022-07-29T10:52:53;26.20;99.90
9975;DHT22;5028;50.974;4.968;2022-07-29T10:55:35;26.20;99.90
9975;DHT22;5028;50.974;4.968;2022-07-29T10:58:14;26.10;99.90
9975;DHT22;5028;50.974;4.968;2022-07-29T11:00:51;26.10;99.90
9975;DHT22;5028;50.974;4.968;2022-07-29T11:03:44;26.10;99.90
9975;DHT22;5028;50.974;4.968;2022-07-29T11:06:24;26.00;99.90
9975;DHT22;5028;50.974;4.968;2022-07-29T11:09:16;26.50;99.90
9975;DHT22;5028;50.974;4.968;2022-07-29T11:12:04;26.60;99.90
9975;DHT22;5028;50.974;4.968;2022-07-29T11:14:56;26.70;99.90
9975;DHT22;5028;50.974;4.968;2022-07-29T11:18:03;26.70;99.90
9975;DHT22;5028;50.974;4.968;2022-07-29T11:20:42;26.40;99.90
9975;DHT22;5028;50.974;4.968;2022-07-29T11:23:24;26.30;99.90
9975;DHT22;5028;50.974;4.968;2022-07-29T11:26:14;26.50;99.90
9975;DHT22;5028;50.974;4.968;2022-07-29T11:28:57;26.70;99.90
9975;DHT22;5028;50.974;4.968;2022-07-29T11:31:35;27.00;99.90
9975;DHT22;5028;50.974;4.968;2022-07-29T11:34:21;27.20;99.90
9975;DHT22;5028;50.974;4.968;2022-07-29T11:37:14;27.60;99.90
9975;DHT22;5028;50.974;4.968;2022-07-29T11:40:16;28.70;99.90
9975;DHT22;5028;50.974;4.968;2022-07-29T11:42:48;28.40;98.70
9975;DHT22;5028;50.974;4.968;2022-07-29T11:45:45;27.80;99.10
9975;DHT22;5028;50.974;4.968;2022-07-29T11:48:16;27.50;98.60
9975;DHT22;5028;50.974;4.968;2022-07-29T11:51:11;27.30;99.40
9975;DHT22;5028;50.974;4.968;2022-07-29T11:53:47;27.40;99.30
9975;DHT22;5028;50.974;4.968;2022-07-29T11:56:31;27.20;98.60
9975;DHT22;5028;50.974;4.968;2022-07-29T11:59:06;27.10;98.50
9975;DHT22;5028;50.974;4.968;2022-07-29T12:01:52;27.10;99.00
9975;DHT22;5028;50.974;4.968;2022-07-29T12:04:48;27.90;98.80
9975;DHT22;5028;50.974;4.968;2022-07-29T12:07:26;28.20;97.60
9975;DHT22;5028;50.974;4.968;2022-07-29T12:10:04;28.10;98.20
9975;DHT22;5028;50.974;4.968;2022-07-29T12:12:52;28.70;97.50
9975;DHT22;5028;50.974;4.968;2022-07-29T12:15:21;28.40;97.40
9975;DHT22;5028;50.974;4.968;2022-07-29T12:18:17;28.20;97.00
9975;DHT22;5028;50.974;4.968;2022-07-29T12:20:57;27.70;97.40
9975;DHT22;5028;50.974;4.968;2022-07-29T12:23:34;26.70;97.90
9975;DHT22;5028;50.974;4.968;2022-07-29T12:26:04;26.00;98.60
9975;DHT22;5028;50.974;4.968;2022-07-29T12:28:52;26.00;99.40
9975;DHT22;5028;50.974;4.968;2022-07-29T12:31:22;26.20;98.90
9975;DHT22;5028;50.974;4.968;2022-07-29T12:34:11;26.90;98.70
9975;DHT22;5028;50.974;4.968;2022-07-29T12:36:41;27.50;98.40
9975;DHT22;5028;50.974;4.968;2022-07-29T12:39:16;28.20;97.30
9975;DHT22;5028;50.974;4.968;2022-07-29T12:41:47;28.60;96.70
9975;DHT22;5028;50.974;4.968;2022-07-29T12:44:45;28.00;96.20
9975;DHT22;5028;50.974;4.968;2022-07-29T12:47:14;27.30;96.90
9975;DHT22;5028;50.974;4.968;2022-07-29T12:49:50;27.30;97.10
9975;DHT22;5028;50.974;4.968;2022-07-29T12:52:29;28.00;97.30
9975;DHT22;5028;50.974;4.968;2022-07-29T12:55:05;28.10;96.50
9975;DHT22;5028;50.974;4.968;2022-07-29T12:57:45;27.90;96.20
9975;DHT22;5028;50.974;4.968;2022-07-29T13:00:24;27.10;96.80
9975;DHT22;5028;50.974;4.968;2022-07-29T13:02:55;26.70;96.60
9975;DHT22;5028;50.974;4.968;2022-07-29T13:05:40;26.50;97.50
9975;DHT22;5028;50.974;4.968;2022-07-29T13:08:16;27.10;96.20
9975;DHT22;5028;50.974;4.968;2022-07-29T13:10:53;27.40;96.50
9975;DHT22;5028;50.974;4.968;2022-07-29T13:13:22;27.30;97.20
9975;DHT22;5028;50.974;4.968;2022-07-29T13:16:07;27.90;96.80
9975;DHT22;5028;50.974;4.968;2022-07-29T13:18:36;28.30;95.70
9975;DHT22;5028;50.974;4.968;2022-07-29T13:21:12;28.20;95.90
9975;DHT22;5028;50.974;4.968;2022-07-29T13:23:47;28.10;95.80
9975;DHT22;5028;50.974;4.968;2022-07-29T13:26:22;28.10;95.70
9975;DHT22;5028;50.974;4.968;2022-07-29T13:28:50;28.00;95.60
9975;DHT22;5028;50.974;4.968;2022-07-29T13:31:27;27.80;96.10
9975;DHT22;5028;50.974;4.968;2022-07-29T13:33:56;27.80;95.80
9975;DHT22;5028;50.974;4.968;2022-07-29T13:36:31;27.80;96.20
9975;DHT22;5028;50.974;4.968;2022-07-29T13:39:05;27.50;96.00
9975;DHT22;5028;50.974;4.968;2022-07-29T13:41:41;26.60;96.60
9975;DHT22;5028;50.974;4.968;2022-07-29T13:44:11;26.30;96.50
9975;DHT22;5028;50.974;4.968;2022-07-29T13:46:47;26.00;96.60
9975;DHT22;5028;50.974;4.968;2022-07-29T13:49:16;26.00;96.50
9975;DHT22;5028;50.974;4.968;2022-07-29T13:51:52;26.00;96.70
9975;DHT22;5028;50.974;4.968;2022-07-29T13:54:21;26.80;97.00
9975;DHT22;5028;50.974;4.968;2022-07-29T13:56:57;27.20;95.50
9975;DHT22;5028;50.974;4.968;2022-07-29T13:59:26;27.20;95.50
9975;DHT22;5028;50.974;4.968;2022-07-29T14:02:02;27.00;95.50
9975;DHT22;5028;50.974;4.968;2022-07-29T14:04:31;26.70;95.30
9975;DHT22;5028;50.974;4.968;2022-07-29T14:07:07;26.50;95.80
9975;DHT22;5028;50.974;4.968;2022-07-29T14:09:42;26.30;95.60
9975;DHT22;5028;50.974;4.968;2022-07-29T14:12:17;26.30;96.70
9975;DHT22;5028;50.974;4.968;2022-07-29T14:14:45;26.70;95.80
9975;DHT22;5028;50.974;4.968;2022-07-29T14:17:22;26.80;95.70
9975;DHT22;5028;50.974;4.968;2022-07-29T14:19:51;26.70;95.10
9975;DHT22;5028;50.974;4.968;2022-07-29T14:22:32;26.60;95.90
9975;DHT22;5028;50.974;4.968;2022-07-29T14:25:08;26.60;95.30
9975;DHT22;5028;50.974;4.968;2022-07-29T14:27:43;26.60;95.70
9975;DHT22;5028;50.974;4.968;2022-07-29T14:30:12;26.90;95.90
9975;DHT22;5028;50.974;4.968;2022-07-29T14:32:49;26.90;95.60
9975;DHT22;5028;50.974;4.968;2022-07-29T14:35:18;26.40;95.90
9975;DHT22;5028;50.974;4.968;2022-07-29T14:37:53;25.90;96.10
9975;DHT22;5028;50.974;4.968;2022-07-29T14:40:21;25.90;96.30
9975;DHT22;5028;50.974;4.968;2022-07-29T14:42:57;26.30;96.40
9975;DHT22;5028;50.974;4.968;2022-07-29T14:45:25;26.70;95.40
9975;DHT22;5028;50.974;4.968;2022-07-29T14:48:03;26.80;95.50
9975;DHT22;5028;50.974;4.968;2022-07-29T14:50:31;27.00;94.90
9975;DHT22;5028;50.974;4.968;2022-07-29T14:53:07;26.40;95.00
9975;DHT22;5028;50.974;4.968;2022-07-29T14:55:36;26.30;95.50
9975;DHT22;5028;50.974;4.968;2022-07-29T14:58:11;26.40;95.50
9975;DHT22;5028;50.974;4.968;2022-07-29T15:00:42;26.20;95.30
9975;DHT22;5028;50.974;4.968;2022-07-29T15:03:18;26.20;96.00
9975;DHT22;5028;50.974;4.968;2022-07-29T15:05:50;26.50;96.10
9975;DHT22;5028;50.974;4.968;2022-07-29T15:08:25;26.70;95.80
9975;DHT22;5028;50.974;4.968;2022-07-29T15:10:56;26.60;95.70
9975;DHT22;5028;50.974;4.968;2022-07-29T15:13:33;26.40;95.60
9975;DHT22;5028;50.974;4.968;2022-07-29T15:16:02;26.30;96.00
9975;DHT22;5028;50.974;4.968;2022-07-29T15:18:38;26.00;95.50
9975;DHT22;5028;50.974;4.968;2022-07-29T15:21:07;25.70;95.90
9975;DHT22;5028;50.974;4.968;2022-07-29T15:23:42;25.60;96.10
9975;DHT22;5028;50.974;4.968;2022-07-29T15:26:10;25.50;96.00
9975;DHT22;5028;50.974;4.968;2022-07-29T15:28:46;25.30;96.40
9975;DHT22;5028;50.974;4.968;2022-07-29T15:31:14;25.40;96.80
9975;DHT22;5028;50.974;4.968;2022-07-29T15:33:51;25.50;96.30
9975;DHT22;5028;50.974;4.968;2022-07-29T15:36:26;25.60;96.30
9975;DHT22;5028;50.974;4.968;2022-07-29T15:39:18;25.60;96.10
9975;DHT22;5028;50.974;4.968;2022-07-29T15:41:46;25.60;96.20
9975;DHT22;5028;50.974;4.968;2022-07-29T15:44:22;25.40;96.10
9975;DHT22;5028;50.974;4.968;2022-07-29T15:46:51;25.50;96.40
9975;DHT22;5028;50.974;4.968;2022-07-29T15:49:40;25.70;96.00
9975;DHT22;5028;50.974;4.968;2022-07-29T15:52:16;25.60;96.00
9975;DHT22;5028;50.974;4.968;2022-07-29T15:54:52;25.50;96.20
9975;DHT22;5028;50.974;4.968;2022-07-29T15:57:28;25.60;96.30
9975;DHT22;5028;50.974;4.968;2022-07-29T15:59:56;25.60;96.40
9975;DHT22;5028;50.974;4.968;2022-07-29T16:02:34;25.60;96.20
9975;DHT22;5028;50.974;4.968;2022-07-29T16:05:07;25.70;95.30
9975;DHT22;5028;50.974;4.968;2022-07-29T16:07:42;25.70;95.80
9975;DHT22;5028;50.974;4.968;2022-07-29T16:10:10;25.80;95.30
9975;DHT22;5028;50.974;4.968;2022-07-29T16:12:46;25.90;95.00
9975;DHT22;5028;50.974;4.968;2022-07-29T16:15:14;26.00;95.10
9975;DHT22;5028;50.974;4.968;2022-07-29T16:17:50;25.90;94.80
9975;DHT22;5028;50.974;4.968;2022-07-29T16:20:21;26.00;94.40
9975;DHT22;5028;50.974;4.968;2022-07-29T16:23:03;26.00;95.40
9975;DHT22;5028;50.974;4.968;2022-07-29T16:25:31;25.90;95.20
9975;DHT22;5028;50.974;4.968;2022-07-29T16:28:26;25.70;95.10
9975;DHT22;5028;50.974;4.968;2022-07-29T16:30:54;25.60;95.40
9975;DHT22;5028;50.974;4.968;2022-07-29T16:33:30;25.50;95.80
9975;DHT22;5028;50.974;4.968;2022-07-29T16:36:20;25.40;95.90
9975;DHT22;5028;50.974;4.968;2022-07-29T16:38:55;25.40;96.50
9975;DHT22;5028;50.974;4.968;2022-07-29T16:41:23;25.40;96.10
9975;DHT22;5028;50.974;4.968;2022-07-29T16:43:58;25.30;96.00
9975;DHT22;5028;50.974;4.968;2022-07-29T16:46:26;25.30;96.40
9975;DHT22;5028;50.974;4.968;2022-07-29T16:49:02;25.40;95.90
9975;DHT22;5028;50.974;4.968;2022-07-29T16:51:33;25.30;96.00
9975;DHT22;5028;50.974;4.968;2022-07-29T16:54:08;25.30;95.70
9975;DHT22;5028;50.974;4.968;2022-07-29T16:56:37;25.30;95.40
9975;DHT22;5028;50.974;4.968;2022-07-29T16:59:13;25.20;95.10